createdAt,value
2023-03-15T00:02:02.224Z,-1.90
2023-03-15T00:04:30.148Z,-2.00
2023-03-15T00:06:57.502Z,-2.00
2023-03-15T00:09:24.927Z,-2.00
2023-03-15T00:11:54.847Z,-2.10
2023-03-15T00:14:22.309Z,-2.10
2023-03-15T00:16:49.787Z,-2.10
2023-03-15T00:19:16.889Z,-2.10
2023-03-15T00:21:44.615Z,-2.10
2023-03-15T00:24:11.784Z,-2.10
2023-03-15T00:26:39.480Z,-2.10
2023-03-15T00:29:06.776Z,-2.30
2023-03-15T00:31:34.275Z,-2.20
2023-03-15T00:34:01.418Z,-2.30
2023-03-15T00:36:28.542Z,-2.40
2023-03-15T00:38:56.851Z,-2.40
2023-03-15T00:41:24.471Z,-2.50
2023-03-15T00:43:52.720Z,-2.50
2023-03-15T00:46:20.754Z,-2.50
2023-03-15T00:48:50.112Z,-2.50
2023-03-15T00:51:21.673Z,-2.50
2023-03-15T00:53:51.350Z,-2.50
2023-03-15T00:56:24.748Z,-2.60
2023-03-15T00:58:53.272Z,-2.60
2023-03-15T01:01:24.060Z,-2.70
2023-03-15T01:03:51.898Z,-2.70
2023-03-15T01:06:28.185Z,-2.70
2023-03-15T01:08:56.818Z,-2.80
2023-03-15T01:11:26.790Z,-2.80
2023-03-15T01:13:55.753Z,-2.80
2023-03-15T01:16:23.865Z,-2.80
2023-03-15T01:18:51.798Z,-2.80
2023-03-15T01:21:19.708Z,-2.90
2023-03-15T01:23:47.197Z,-2.90
2023-03-15T01:26:16.222Z,-2.90
2023-03-15T01:28:43.995Z,-3.00
2023-03-15T01:31:26.427Z,-3.10
2023-03-15T01:33:54.305Z,-3.20
2023-03-15T01:36:21.640Z,-3.20
2023-03-15T01:38:52.538Z,-3.20
2023-03-15T01:41:20.211Z,-3.10
2023-03-15T01:43:47.786Z,-3.20
2023-03-15T01:46:28.411Z,-3.30
2023-03-15T01:48:55.469Z,-3.30
2023-03-15T01:51:53.988Z,-3.40
2023-03-15T01:54:39.107Z,-3.30
2023-03-15T01:57:14.915Z,-3.20
2023-03-15T02:00:12.275Z,-3.20
2023-03-15T02:02:46.656Z,-3.40
2023-03-15T02:05:20.800Z,-3.40
2023-03-15T02:07:50.332Z,-3.50
2023-03-15T02:10:26.751Z,-3.50
2023-03-15T02:12:55.988Z,-3.50
2023-03-15T02:15:23.438Z,-3.50
2023-03-15T02:17:50.828Z,-3.60
2023-03-15T02:20:31.398Z,-3.50
2023-03-15T02:23:06.678Z,-3.60
2023-03-15T02:26:21.876Z,-3.60
2023-03-15T02:28:49.850Z,-3.70
2023-03-15T02:31:18.417Z,-3.80
2023-03-15T02:33:50.925Z,-3.80
2023-03-15T02:36:26.766Z,-3.80
2023-03-15T02:38:55.219Z,-3.80
2023-03-15T02:41:28.362Z,-3.90
2023-03-15T02:44:03.185Z,-3.90
2023-03-15T02:46:30.561Z,-3.90
2023-03-15T02:48:58.597Z,-3.90
2023-03-15T02:51:29.248Z,-3.90
2023-03-15T02:53:56.643Z,-3.90
2023-03-15T02:56:24.756Z,-4.00
2023-03-15T02:58:51.981Z,-4.00
2023-03-15T03:01:20.075Z,-3.90
2023-03-15T03:03:48.112Z,-4.00
2023-03-15T03:06:17.254Z,-4.00
2023-03-15T03:08:47.468Z,-4.10
2023-03-15T03:11:16.383Z,-4.20
2023-03-15T03:13:44.313Z,-4.20
2023-03-15T03:16:12.286Z,-4.10
2023-03-15T03:18:42.438Z,-4.00
2023-03-15T03:21:09.992Z,-4.10
2023-03-15T03:23:37.935Z,-4.00
2023-03-15T03:26:16.926Z,-4.00
2023-03-15T03:28:46.692Z,-4.10
2023-03-15T03:31:22.792Z,-4.30
2023-03-15T03:33:50.123Z,-4.40
2023-03-15T03:36:17.409Z,-4.40
2023-03-15T03:38:46.449Z,-4.40
2023-03-15T03:41:14.792Z,-4.40
2023-03-15T03:43:42.083Z,-4.50
2023-03-15T03:46:09.837Z,-4.50
2023-03-15T03:48:36.992Z,-4.40
2023-03-15T03:51:04.548Z,-4.50
2023-03-15T03:53:31.986Z,-4.50
2023-03-15T03:55:59.182Z,-4.50
2023-03-15T03:58:26.258Z,-4.50
2023-03-15T04:00:55.975Z,-4.50
2023-03-15T04:03:27.492Z,-4.60
2023-03-15T04:05:56.227Z,-4.50
2023-03-15T04:08:25.714Z,-4.40
2023-03-15T04:10:54.523Z,-4.40
2023-03-15T04:13:23.504Z,-4.40
2023-03-15T04:15:51.833Z,-4.50
2023-03-15T04:18:19.892Z,-4.40
2023-03-15T04:20:48.269Z,-4.60
2023-03-15T04:23:19.433Z,-4.60
2023-03-15T04:25:53.154Z,-4.60
2023-03-15T04:28:20.590Z,-4.60
2023-03-15T04:30:49.478Z,-4.60
2023-03-15T04:33:17.000Z,-4.50
2023-03-15T04:35:44.159Z,-4.70
2023-03-15T04:38:11.323Z,-4.70
2023-03-15T04:40:38.493Z,-4.60
2023-03-15T04:43:06.417Z,-4.50
2023-03-15T04:45:34.184Z,-4.70
2023-03-15T04:48:02.693Z,-4.70
2023-03-15T04:50:31.172Z,-4.70
2023-03-15T04:52:59.814Z,-4.70
2023-03-15T04:55:27.241Z,-4.80
2023-03-15T04:57:55.512Z,-4.90
2023-03-15T05:00:23.145Z,-4.90
2023-03-15T05:02:55.156Z,-4.90
2023-03-15T05:05:26.334Z,-4.90
2023-03-15T05:07:54.161Z,-4.80
2023-03-15T05:10:21.787Z,-4.70
2023-03-15T05:12:49.132Z,-4.70
2023-03-15T05:15:16.634Z,-4.60
2023-03-15T05:17:46.569Z,-4.60
2023-03-15T05:20:15.714Z,-4.70
2023-03-15T05:22:43.662Z,-4.80
2023-03-15T05:25:11.370Z,-4.80
2023-03-15T05:27:39.403Z,-4.80
2023-03-15T05:30:08.032Z,-4.90
2023-03-15T05:32:35.395Z,-4.90
2023-03-15T05:35:02.982Z,-4.70
2023-03-15T05:37:30.593Z,-4.70
2023-03-15T05:39:58.045Z,-4.70
2023-03-15T05:42:29.548Z,-4.50
2023-03-15T05:44:57.541Z,-4.50
2023-03-15T05:47:25.001Z,-4.40
2023-03-15T05:49:53.554Z,-4.50
2023-03-15T05:52:22.082Z,-4.50
2023-03-15T05:54:49.520Z,-4.50
2023-03-15T05:57:16.960Z,-4.60
2023-03-15T05:59:44.504Z,-4.60
2023-03-15T06:02:11.940Z,-4.50
2023-03-15T06:04:39.388Z,-4.50
2023-03-15T06:07:06.889Z,-4.60
2023-03-15T06:09:34.288Z,-4.40
2023-03-15T06:12:01.655Z,-4.40
2023-03-15T06:14:29.157Z,-4.20
2023-03-15T06:16:56.542Z,-4.20
2023-03-15T06:19:24.453Z,-4.10
2023-03-15T06:21:52.025Z,-4.00
2023-03-15T06:24:19.428Z,-3.90
2023-03-15T06:26:46.784Z,-3.90
2023-03-15T06:29:14.307Z,-3.80
2023-03-15T06:31:41.716Z,-3.80
2023-03-15T06:34:09.174Z,-3.70
2023-03-15T06:36:37.123Z,-3.70
2023-03-15T06:39:05.798Z,-3.50
2023-03-15T06:41:32.950Z,-3.50
2023-03-15T06:44:00.549Z,-3.40
2023-03-15T06:46:27.724Z,-3.40
2023-03-15T06:48:55.148Z,-3.30
2023-03-15T06:51:22.940Z,-3.20
2023-03-15T06:53:53.230Z,-3.10
2023-03-15T06:56:20.949Z,-3.00
2023-03-15T06:58:48.132Z,-3.00
2023-03-15T07:01:16.829Z,-2.90
2023-03-15T07:03:44.311Z,-2.80
2023-03-15T07:06:11.539Z,-2.80
2023-03-15T07:08:38.654Z,-2.70
2023-03-15T07:11:06.570Z,-2.60
2023-03-15T07:13:33.715Z,-2.50
2023-03-15T07:16:00.969Z,-2.50
2023-03-15T07:18:28.058Z,-2.40
2023-03-15T07:20:59.513Z,-2.20
2023-03-15T07:23:27.661Z,-2.10
2023-03-15T07:25:56.216Z,-2.10
2023-03-15T07:28:25.355Z,-1.80
2023-03-15T07:31:00.794Z,-1.60
2023-03-15T07:33:29.764Z,-1.20
2023-03-15T07:35:57.337Z,-0.90
2023-03-15T07:38:27.265Z,-0.50
2023-03-15T07:40:55.001Z,-0.70
2023-03-15T07:43:22.568Z,-0.60
2023-03-15T07:45:50.271Z,-0.50
2023-03-15T07:48:17.812Z,-0.40
2023-03-15T07:50:46.114Z,-0.70
2023-03-15T07:53:13.522Z,-0.70
2023-03-15T07:55:40.721Z,-0.60
2023-03-15T07:58:07.892Z,-0.60
2023-03-15T08:00:35.094Z,-0.30
2023-03-15T08:03:02.661Z,0.10
2023-03-15T08:05:30.508Z,0.40
2023-03-15T08:07:57.710Z,0.50
2023-03-15T08:10:24.781Z,0.80
2023-03-15T08:12:52.642Z,0.90
2023-03-15T08:15:20.926Z,0.60
2023-03-15T08:17:49.355Z,0.90
2023-03-15T08:20:17.986Z,0.90
2023-03-15T08:22:49.639Z,1.00
2023-03-15T08:25:19.992Z,0.70
2023-03-15T08:27:47.731Z,0.60
2023-03-15T08:30:16.524Z,0.80
2023-03-15T08:32:45.900Z,0.60
2023-03-15T08:35:15.788Z,0.60
2023-03-15T08:37:47.135Z,0.60
2023-03-15T08:40:23.978Z,0.40
2023-03-15T08:42:52.615Z,0.80
2023-03-15T08:45:21.074Z,1.20
2023-03-15T08:47:48.422Z,1.30
2023-03-15T08:50:16.872Z,1.40
2023-03-15T08:52:44.445Z,1.30
2023-03-15T08:55:14.585Z,1.10
2023-03-15T08:57:43.199Z,0.80
2023-03-15T09:00:20.913Z,1.40
2023-03-15T09:02:49.574Z,1.30
2023-03-15T09:05:16.991Z,2.40
2023-03-15T09:07:45.717Z,3.40
2023-03-15T09:10:15.561Z,3.50
2023-03-15T09:12:48.433Z,3.30
2023-03-15T09:15:16.151Z,2.60
2023-03-15T09:17:43.890Z,2.40
2023-03-15T09:20:17.001Z,2.80
2023-03-15T09:22:49.518Z,3.40
2023-03-15T09:25:16.732Z,5.70
2023-03-15T09:27:44.071Z,5.30
2023-03-15T09:30:11.847Z,5.40
2023-03-15T09:32:39.400Z,4.00
2023-03-15T09:35:09.098Z,4.20
2023-03-15T09:37:36.388Z,4.00
2023-03-15T09:40:04.942Z,3.20
2023-03-15T09:42:52.033Z,3.10
2023-03-15T09:45:37.356Z,2.80
2023-03-15T09:48:09.075Z,2.40
2023-03-15T09:51:01.285Z,2.20
2023-03-15T09:53:43.650Z,2.10
2023-03-15T09:56:36.990Z,2.20
2023-03-15T09:59:05.924Z,2.40
2023-03-15T10:01:37.380Z,2.60
2023-03-15T10:04:16.814Z,2.70
2023-03-15T10:06:50.193Z,2.90
2023-03-15T10:09:24.547Z,3.00
2023-03-15T10:12:07.137Z,2.90
2023-03-15T10:14:56.248Z,2.90
2023-03-15T10:17:50.031Z,3.20
2023-03-15T10:20:24.021Z,3.30
2023-03-15T10:23:00.497Z,3.10
2023-03-15T10:25:32.087Z,3.00
2023-03-15T10:28:05.358Z,2.80
2023-03-15T10:30:34.970Z,2.70
2023-03-15T10:33:09.883Z,2.90
2023-03-15T10:35:38.204Z,2.80
2023-03-15T10:38:15.666Z,2.80
2023-03-15T10:40:46.301Z,2.90
2023-03-15T10:43:17.357Z,2.60
2023-03-15T10:45:49.871Z,2.50
2023-03-15T10:48:18.281Z,2.60
2023-03-15T10:50:45.673Z,2.50
2023-03-15T10:53:21.929Z,2.60
2023-03-15T10:55:49.447Z,2.50
2023-03-15T10:58:29.350Z,2.40
2023-03-15T11:01:22.704Z,2.60
2023-03-15T11:04:01.506Z,2.40
2023-03-15T11:06:29.099Z,2.40
2023-03-15T11:09:13.119Z,2.50
2023-03-15T11:12:03.016Z,2.50
2023-03-15T11:14:40.422Z,2.60
2023-03-15T11:17:15.761Z,2.70
2023-03-15T11:19:51.786Z,2.70
2023-03-15T11:22:19.208Z,2.90
2023-03-15T11:24:46.645Z,2.90
2023-03-15T11:27:17.953Z,3.10
2023-03-15T11:29:52.729Z,3.30
2023-03-15T11:32:24.072Z,3.40
2023-03-15T11:35:22.387Z,3.20
2023-03-15T11:38:13.011Z,3.40
2023-03-15T11:40:48.228Z,3.30
2023-03-15T11:43:37.977Z,3.20
2023-03-15T11:46:12.687Z,3.20
2023-03-15T11:49:03.446Z,3.20
2023-03-15T11:51:36.636Z,3.50
2023-03-15T11:54:17.506Z,3.60
2023-03-15T11:56:44.868Z,3.40
2023-03-15T11:59:14.790Z,3.40
2023-03-15T12:01:51.799Z,3.60
2023-03-15T12:04:36.971Z,3.50
2023-03-15T12:07:24.724Z,3.40
2023-03-15T12:10:05.325Z,3.20
2023-03-15T12:12:32.748Z,3.10
2023-03-15T12:15:15.431Z,3.00
2023-03-15T12:18:06.568Z,3.10
2023-03-15T12:20:43.098Z,3.10
2023-03-15T12:23:19.207Z,2.90
2023-03-15T12:26:08.054Z,3.00
2023-03-15T12:28:41.605Z,2.90
2023-03-15T12:31:14.914Z,2.80
2023-03-15T12:33:58.544Z,3.00
2023-03-15T12:36:45.544Z,3.20
2023-03-15T12:39:15.766Z,3.30
2023-03-15T12:41:51.051Z,3.10
2023-03-15T12:44:44.432Z,3.10
2023-03-15T12:47:12.853Z,2.90
2023-03-15T12:49:45.503Z,3.00
2023-03-15T12:52:25.465Z,3.20
2023-03-15T12:54:59.989Z,3.10
2023-03-15T12:57:37.166Z,3.30
2023-03-15T13:00:21.114Z,3.30
2023-03-15T13:03:08.138Z,3.20
2023-03-15T13:06:03.873Z,3.30
2023-03-15T13:08:55.465Z,3.40
2023-03-15T13:11:34.244Z,3.30
2023-03-15T13:14:29.438Z,3.40
2023-03-15T13:17:34.464Z,3.50
2023-03-15T13:20:30.238Z,3.50
2023-03-15T13:23:26.471Z,3.70
2023-03-15T13:26:05.836Z,3.60
2023-03-15T13:28:46.775Z,3.80
2023-03-15T13:31:24.776Z,4.00
2023-03-15T13:33:57.800Z,3.80
2023-03-15T13:36:47.476Z,3.90
2023-03-15T13:39:24.328Z,3.80
2023-03-15T13:42:05.786Z,3.70
2023-03-15T13:44:34.378Z,3.50
2023-03-15T13:47:01.513Z,3.50
2023-03-15T13:49:33.800Z,3.60
2023-03-15T13:52:12.182Z,3.80
2023-03-15T13:54:40.347Z,3.90
2023-03-15T13:57:15.697Z,4.00
2023-03-15T14:00:10.959Z,3.70
2023-03-15T14:03:06.055Z,3.40
2023-03-15T14:05:42.568Z,3.40
2023-03-15T14:08:27.530Z,3.50
2023-03-15T14:10:59.224Z,3.60
2023-03-15T14:13:32.661Z,3.80
2023-03-15T14:16:04.217Z,3.80
2023-03-15T14:18:37.528Z,3.80
2023-03-15T14:21:08.028Z,4.00
2023-03-15T14:23:44.542Z,4.00
2023-03-15T14:26:27.325Z,4.10
2023-03-15T14:29:05.990Z,4.10
2023-03-15T14:31:39.611Z,4.10
2023-03-15T14:34:29.333Z,4.30
2023-03-15T14:37:00.035Z,4.00
2023-03-15T14:39:40.446Z,3.70
2023-03-15T14:42:12.146Z,3.60
2023-03-15T14:44:39.331Z,3.30
2023-03-15T14:47:16.483Z,3.20
2023-03-15T14:49:43.728Z,3.10
2023-03-15T14:52:14.578Z,3.20
2023-03-15T14:54:48.570Z,3.20
2023-03-15T14:57:15.746Z,3.20
2023-03-15T14:59:42.910Z,3.10
2023-03-15T15:02:23.349Z,2.90
2023-03-15T15:04:50.669Z,2.90
2023-03-15T15:07:20.368Z,2.80
2023-03-15T15:09:50.885Z,2.80
2023-03-15T15:12:19.268Z,2.90
2023-03-15T15:14:47.260Z,2.90
2023-03-15T15:17:17.077Z,3.00
2023-03-15T15:19:46.982Z,3.00
2023-03-15T15:22:17.250Z,2.90
2023-03-15T15:24:45.305Z,2.90
2023-03-15T15:27:15.461Z,2.90
2023-03-15T15:29:42.654Z,2.80
2023-03-15T15:32:12.869Z,2.80
2023-03-15T15:34:42.757Z,2.80
2023-03-15T15:37:13.545Z,2.80
2023-03-15T15:39:41.573Z,2.70
2023-03-15T15:42:11.052Z,2.60
2023-03-15T15:44:38.157Z,2.50
2023-03-15T15:47:05.803Z,2.40
2023-03-15T15:49:33.054Z,2.50
2023-03-15T15:52:00.151Z,2.40
2023-03-15T15:54:30.588Z,2.40
2023-03-15T15:57:01.350Z,2.40
2023-03-15T15:59:28.734Z,2.50
2023-03-15T16:02:01.913Z,2.40
2023-03-15T16:04:30.730Z,2.50
2023-03-15T16:07:01.981Z,2.50
2023-03-15T16:09:31.069Z,2.30
2023-03-15T16:11:58.651Z,2.20
2023-03-15T16:14:25.803Z,2.00
2023-03-15T16:16:52.972Z,2.00
2023-03-15T16:19:20.030Z,1.90
2023-03-15T16:21:50.990Z,1.90
2023-03-15T16:24:25.934Z,2.00
2023-03-15T16:26:58.392Z,1.90
2023-03-15T16:29:38.416Z,1.90
2023-03-15T16:32:17.641Z,1.90
2023-03-15T16:34:49.803Z,1.80
2023-03-15T16:37:21.652Z,1.80
2023-03-15T16:39:53.167Z,1.80
2023-03-15T16:42:20.782Z,1.80
2023-03-15T16:44:47.916Z,1.80
2023-03-15T16:47:15.017Z,1.80
2023-03-15T16:49:42.081Z,1.50
2023-03-15T16:52:10.020Z,1.50
2023-03-15T16:54:41.211Z,1.40
2023-03-15T16:57:22.323Z,1.40
2023-03-15T16:59:50.131Z,1.30
2023-03-15T17:02:26.898Z,1.30
2023-03-15T17:04:54.188Z,1.10
2023-03-15T17:07:36.096Z,1.00
2023-03-15T17:10:10.829Z,0.90
2023-03-15T17:12:38.930Z,0.90
2023-03-15T17:15:06.766Z,0.90
2023-03-15T17:17:36.911Z,0.90
2023-03-15T17:20:11.050Z,0.90
2023-03-15T17:22:38.758Z,0.80
2023-03-15T17:25:06.192Z,0.80
2023-03-15T17:27:41.743Z,0.70
2023-03-15T17:30:30.204Z,0.60
2023-03-15T17:32:57.920Z,0.50
2023-03-15T17:35:29.469Z,0.40
2023-03-15T17:37:56.852Z,0.30
2023-03-15T17:40:27.358Z,0.20
2023-03-15T17:42:56.728Z,0.10
2023-03-15T17:45:26.486Z,-0.10
2023-03-15T17:47:56.799Z,-0.20
2023-03-15T17:50:28.011Z,-0.20
2023-03-15T17:53:08.000Z,-0.40
2023-03-15T17:55:35.281Z,-0.50
2023-03-15T17:58:03.870Z,-0.60
2023-03-15T18:00:32.827Z,-0.80
2023-03-15T18:03:00.957Z,-0.80
2023-03-15T18:05:29.861Z,-0.90
2023-03-15T18:08:00.034Z,-1.10
2023-03-15T18:10:35.652Z,-1.20
2023-03-15T18:13:04.281Z,-1.20
2023-03-15T18:15:31.916Z,-1.20
2023-03-15T18:17:59.028Z,-1.20
2023-03-15T18:20:26.194Z,-1.20
2023-03-15T18:22:53.545Z,-1.20
2023-03-15T18:25:23.654Z,-1.30
2023-03-15T18:27:51.835Z,-1.30
2023-03-15T18:30:22.443Z,-1.40
2023-03-15T18:32:50.906Z,-1.50
2023-03-15T18:35:31.412Z,-1.40
2023-03-15T18:37:59.078Z,-1.30
2023-03-15T18:40:29.644Z,-1.20
2023-03-15T18:42:58.120Z,-1.10
2023-03-15T18:45:31.032Z,-0.90
2023-03-15T18:48:00.096Z,-0.80
2023-03-15T18:50:27.823Z,-0.60
2023-03-15T18:52:56.155Z,-0.40
2023-03-15T18:55:23.838Z,-0.30
2023-03-15T18:57:52.185Z,-0.30
2023-03-15T19:00:32.649Z,-0.20
2023-03-15T19:03:01.012Z,-0.20
2023-03-15T19:05:29.815Z,-0.20
2023-03-15T19:07:57.304Z,-0.30
2023-03-15T19:10:25.772Z,-0.30
2023-03-15T19:12:53.860Z,-0.40
2023-03-15T19:15:22.842Z,-0.50
2023-03-15T19:17:52.250Z,-0.60
2023-03-15T19:20:22.222Z,-0.70
2023-03-15T19:22:51.232Z,-0.80
2023-03-15T19:25:18.434Z,-0.90
2023-03-15T19:27:45.899Z,-1.00
2023-03-15T19:30:21.266Z,-1.10
2023-03-15T19:32:50.437Z,-1.30
2023-03-15T19:35:19.859Z,-1.50
2023-03-15T19:37:48.566Z,-1.70
2023-03-15T19:40:17.359Z,-1.80
2023-03-15T19:42:45.407Z,-1.70
2023-03-15T19:45:14.007Z,-1.80
2023-03-15T19:47:42.048Z,-1.90
2023-03-15T19:50:11.594Z,-2.00
2023-03-15T19:52:45.923Z,-2.10
2023-03-15T19:55:16.727Z,-2.20
2023-03-15T19:57:45.050Z,-2.20
2023-03-15T20:00:16.675Z,-2.30
2023-03-15T20:02:45.037Z,-2.30
2023-03-15T20:05:15.575Z,-2.30
2023-03-15T20:07:44.012Z,-2.50
2023-03-15T20:10:12.590Z,-2.50
2023-03-15T20:12:42.738Z,-2.60
2023-03-15T20:15:16.182Z,-2.70
2023-03-15T20:17:43.801Z,-2.70
2023-03-15T20:20:13.314Z,-2.80
2023-03-15T20:22:42.326Z,-2.80
2023-03-15T20:25:11.229Z,-2.80
2023-03-15T20:27:38.811Z,-2.80
2023-03-15T20:30:07.873Z,-2.90
2023-03-15T20:32:35.049Z,-2.90
2023-03-15T20:35:02.629Z,-2.90
2023-03-15T20:37:31.354Z,-3.00
2023-03-15T20:39:58.376Z,-3.00
2023-03-15T20:42:25.634Z,-3.00
2023-03-15T20:44:52.958Z,-3.10
2023-03-15T20:47:20.092Z,-3.20
2023-03-15T20:49:47.206Z,-3.20
2023-03-15T20:52:14.394Z,-3.30
2023-03-15T20:54:41.698Z,-3.30
2023-03-15T20:57:08.880Z,-3.40
2023-03-15T20:59:36.000Z,-3.40
2023-03-15T21:02:03.409Z,-3.40
2023-03-15T21:04:31.284Z,-3.40
2023-03-15T21:07:04.633Z,-3.40
2023-03-15T21:09:32.746Z,-3.50
2023-03-15T21:12:00.338Z,-3.50
2023-03-15T21:14:27.609Z,-3.50
2023-03-15T21:16:55.070Z,-3.50
2023-03-15T21:19:23.385Z,-3.60
2023-03-15T21:21:50.519Z,-3.60
2023-03-15T21:24:17.599Z,-3.60
2023-03-15T21:26:48.595Z,-3.60
2023-03-15T21:29:15.731Z,-3.60
2023-03-15T21:31:43.023Z,-3.60
2023-03-15T21:34:10.138Z,-3.70
2023-03-15T21:36:37.248Z,-3.70
2023-03-15T21:39:06.549Z,-3.70
2023-03-15T21:41:34.707Z,-3.80
2023-03-15T21:44:01.926Z,-3.80
2023-03-15T21:46:29.053Z,-3.80
2023-03-15T21:48:56.117Z,-3.80
2023-03-15T21:51:23.169Z,-3.70
2023-03-15T21:53:50.487Z,-3.70
2023-03-15T21:56:17.576Z,-3.70
2023-03-15T21:58:44.791Z,-3.70
2023-03-15T22:01:14.061Z,-3.80
2023-03-15T22:03:42.646Z,-3.80
2023-03-15T22:06:10.476Z,-3.80
2023-03-15T22:08:37.611Z,-3.90
2023-03-15T22:11:04.841Z,-3.90
2023-03-15T22:13:32.323Z,-3.90
2023-03-15T22:15:59.700Z,-3.90
2023-03-15T22:18:30.042Z,-3.90
2023-03-15T22:20:57.420Z,-3.90
2023-03-15T22:23:24.693Z,-4.00
2023-03-15T22:25:53.818Z,-4.00
2023-03-15T22:28:21.827Z,-4.00
2023-03-15T22:30:51.296Z,-4.10
2023-03-15T22:33:20.419Z,-4.20
2023-03-15T22:35:57.003Z,-4.20
2023-03-15T22:38:25.653Z,-4.20
2023-03-15T22:41:00.970Z,-4.40
2023-03-15T22:43:28.393Z,-4.40
2023-03-15T22:45:55.518Z,-4.30
2023-03-15T22:48:23.162Z,-4.30
2023-03-15T22:51:04.561Z,-4.20
2023-03-15T22:53:33.895Z,-4.30
2023-03-15T22:56:01.085Z,-4.40
2023-03-15T22:58:28.211Z,-4.40
2023-03-15T23:00:55.412Z,-4.50
2023-03-15T23:03:23.234Z,-4.50
2023-03-15T23:05:50.750Z,-4.60
2023-03-15T23:08:18.079Z,-4.70
2023-03-15T23:10:45.577Z,-4.80
2023-03-15T23:13:12.903Z,-4.90
2023-03-15T23:15:40.590Z,-4.80
2023-03-15T23:18:08.265Z,-4.80
2023-03-15T23:20:36.373Z,-4.70
2023-03-15T23:23:03.526Z,-4.90
2023-03-15T23:25:30.966Z,-5.00
2023-03-15T23:27:58.133Z,-5.10
2023-03-15T23:30:25.802Z,-5.20
2023-03-15T23:32:57.763Z,-5.20
2023-03-15T23:35:25.990Z,-5.10
2023-03-15T23:37:53.526Z,-5.10
2023-03-15T23:40:21.602Z,-5.10
2023-03-15T23:42:58.940Z,-5.10
2023-03-15T23:45:27.903Z,-5.20
2023-03-15T23:47:55.082Z,-5.20
2023-03-15T23:50:26.146Z,-5.30
2023-03-15T23:52:54.981Z,-5.40
2023-03-15T23:55:23.837Z,-5.50
2023-03-15T23:57:51.461Z,-5.60
